sensor_id;sensor_type;location;lat;lon;timestamp;temperature;humidity
23671;DHT22;12012;51.998;7.614;2023-12-20T00:02:13;6.50;99.90
23671;DHT22;12012;51.998;7.614;2023-12-20T00:04:39;6.50;99.90
23671;DHT22;12012;51.998;7.614;2023-12-20T00:07:04;6.50;99.90
23671;DHT22;12012;51.998;7.614;2023-12-20T00:09:30;6.50;99.90
23671;DHT22;12012;51.998;7.614;2023-12-20T00:11:56;6.50;99.90
23671;DHT22;12012;51.998;7.614;2023-12-20T00:14:22;6.50;99.90
23671;DHT22;12012;51.998;7.614;2023-12-20T00:16:47;6.50;99.90
23671;DHT22;12012;51.998;7.614;2023-12-20T00:19:13;6.50;99.90
23671;DHT22;12012;51.998;7.614;2023-12-20T00:21:38;6.50;99.90
23671;DHT22;12012;51.998;7.614;2023-12-20T00:24:05;6.50;99.90
23671;DHT22;12012;51.998;7.614;2023-12-20T00:26:30;6.50;99.90
23671;DHT22;12012;51.998;7.614;2023-12-20T00:28:56;6.50;99.90
23671;DHT22;12012;51.998;7.614;2023-12-20T00:31:21;6.50;99.90
23671;DHT22;12012;51.998;7.614;2023-12-20T00:33:47;6.50;99.90
23671;DHT22;12012;51.998;7.614;2023-12-20T00:36:13;6.50;99.90
23671;DHT22;12012;51.998;7.614;2023-12-20T00:38:38;6.50;99.90
23671;DHT22;12012;51.998;7.614;2023-12-20T00:41:04;6.50;99.90
23671;DHT22;12012;51.998;7.614;2023-12-20T00:43:29;6.60;99.90
23671;DHT22;12012;51.998;7.614;2023-12-20T00:45:55;6.60;99.90
23671;DHT22;12012;51.998;7.614;2023-12-20T00:48:21;6.60;99.90
23671;DHT22;12012;51.998;7.614;2023-12-20T00:50:46;6.60;99.90
23671;DHT22;12012;51.998;7.614;2023-12-20T00:53:15;6.60;99.90
23671;DHT22;12012;51.998;7.614;2023-12-20T00:55:40;6.60;99.90
23671;DHT22;12012;51.998;7.614;2023-12-20T00:58:06;6.50;99.90
23671;DHT22;12012;51.998;7.614;2023-12-20T01:00:31;6.50;99.90
23671;DHT22;12012;51.998;7.614;2023-12-20T01:02:57;6.50;99.90
23671;DHT22;12012;51.998;7.614;2023-12-20T01:05:23;6.50;99.90
23671;DHT22;12012;51.998;7.614;2023-12-20T01:07:49;6.50;99.90
23671;DHT22;12012;51.998;7.614;2023-12-20T01:10:14;6.50;99.90
23671;DHT22;12012;51.998;7.614;2023-12-20T01:12:40;6.50;99.90
23671;DHT22;12012;51.998;7.614;2023-12-20T01:15:06;6.40;99.90
23671;DHT22;12012;51.998;7.614;2023-12-20T01:17:31;6.40;99.90
23671;DHT22;12012;51.998;7.614;2023-12-20T01:19:57;6.40;99.90
23671;DHT22;12012;51.998;7.614;2023-12-20T01:22:23;6.40;99.90
23671;DHT22;12012;51.998;7.614;2023-12-20T01:24:49;6.40;99.90
23671;DHT22;12012;51.998;7.614;2023-12-20T01:27:14;6.30;99.90
23671;DHT22;12012;51.998;7.614;2023-12-20T01:29:40;6.30;99.90
23671;DHT22;12012;51.998;7.614;2023-12-20T01:32:06;6.30;99.90
23671;DHT22;12012;51.998;7.614;2023-12-20T01:34:32;6.20;99.90
23671;DHT22;12012;51.998;7.614;2023-12-20T01:36:57;6.10;99.90
23671;DHT22;12012;51.998;7.614;2023-12-20T01:39:23;6.10;99.90
23671;DHT22;12012;51.998;7.614;2023-12-20T01:41:48;6.10;99.90
23671;DHT22;12012;51.998;7.614;2023-12-20T01:44:14;6.10;99.90
23671;DHT22;12012;51.998;7.614;2023-12-20T01:46:40;6.00;99.90
23671;DHT22;12012;51.998;7.614;2023-12-20T01:49:06;6.00;99.90
23671;DHT22;12012;51.998;7.614;2023-12-20T01:51:32;6.00;99.90
23671;DHT22;12012;51.998;7.614;2023-12-20T01:53:59;6.00;99.90
23671;DHT22;12012;51.998;7.614;2023-12-20T01:56:26;6.00;99.90
23671;DHT22;12012;51.998;7.614;2023-12-20T01:58:54;5.90;99.90
23671;DHT22;12012;51.998;7.614;2023-12-20T02:01:20;5.90;99.90
23671;DHT22;12012;51.998;7.614;2023-12-20T02:03:46;5.90;99.90
23671;DHT22;12012;51.998;7.614;2023-12-20T02:06:11;5.80;99.90
23671;DHT22;12012;51.998;7.614;2023-12-20T02:08:37;5.80;99.90
23671;DHT22;12012;51.998;7.614;2023-12-20T02:11:03;5.80;99.90
23671;DHT22;12012;51.998;7.614;2023-12-20T02:13:30;5.80;99.90
23671;DHT22;12012;51.998;7.614;2023-12-20T02:15:56;5.80;99.90
23671;DHT22;12012;51.998;7.614;2023-12-20T02:18:22;5.80;99.90
23671;DHT22;12012;51.998;7.614;2023-12-20T02:20:48;5.80;99.90
23671;DHT22;12012;51.998;7.614;2023-12-20T02:23:13;5.80;99.90
23671;DHT22;12012;51.998;7.614;2023-12-20T02:25:39;5.70;99.90
23671;DHT22;12012;51.998;7.614;2023-12-20T02:28:05;5.80;99.90
23671;DHT22;12012;51.998;7.614;2023-12-20T02:30:32;5.70;99.90
23671;DHT22;12012;51.998;7.614;2023-12-20T02:32:59;5.70;99.90
23671;DHT22;12012;51.998;7.614;2023-12-20T02:35:25;5.70;99.90
23671;DHT22;12012;51.998;7.614;2023-12-20T02:37:50;5.70;99.90
23671;DHT22;12012;51.998;7.614;2023-12-20T02:40:16;5.70;99.90
23671;DHT22;12012;51.998;7.614;2023-12-20T02:42:42;5.70;99.90
23671;DHT22;12012;51.998;7.614;2023-12-20T02:45:07;5.70;99.90
23671;DHT22;12012;51.998;7.614;2023-12-20T02:47:33;5.70;99.90
23671;DHT22;12012;51.998;7.614;2023-12-20T02:49:59;5.70;99.90
23671;DHT22;12012;51.998;7.614;2023-12-20T02:52:25;5.70;99.90
23671;DHT22;12012;51.998;7.614;2023-12-20T02:54:50;5.70;99.90
23671;DHT22;12012;51.998;7.614;2023-12-20T02:57:16;5.70;99.90
23671;DHT22;12012;51.998;7.614;2023-12-20T02:59:41;5.70;99.90
23671;DHT22;12012;51.998;7.614;2023-12-20T03:02:07;5.70;99.90
23671;DHT22;12012;51.998;7.614;2023-12-20T03:04:33;5.70;99.90
23671;DHT22;12012;51.998;7.614;2023-12-20T03:06:58;5.70;99.90
23671;DHT22;12012;51.998;7.614;2023-12-20T03:09:24;5.70;99.90
23671;DHT22;12012;51.998;7.614;2023-12-20T03:11:49;5.70;99.90
23671;DHT22;12012;51.998;7.614;2023-12-20T03:14:15;5.70;99.90
23671;DHT22;12012;51.998;7.614;2023-12-20T03:16:40;5.70;99.90
23671;DHT22;12012;51.998;7.614;2023-12-20T03:19:06;5.70;99.90
23671;DHT22;12012;51.998;7.614;2023-12-20T03:21:32;5.70;99.90
23671;DHT22;12012;51.998;7.614;2023-12-20T03:23:57;5.70;99.90
23671;DHT22;12012;51.998;7.614;2023-12-20T03:26:23;5.80;99.90
23671;DHT22;12012;51.998;7.614;2023-12-20T03:28:48;5.80;99.90
23671;DHT22;12012;51.998;7.614;2023-12-20T03:31:14;5.80;99.90
23671;DHT22;12012;51.998;7.614;2023-12-20T03:33:40;5.80;99.90
23671;DHT22;12012;51.998;7.614;2023-12-20T03:36:05;5.80;99.90
23671;DHT22;12012;51.998;7.614;2023-12-20T03:38:31;5.80;99.90
23671;DHT22;12012;51.998;7.614;2023-12-20T03:40:57;5.70;99.90
23671;DHT22;12012;51.998;7.614;2023-12-20T03:43:22;5.70;99.90
23671;DHT22;12012;51.998;7.614;2023-12-20T03:45:48;5.80;99.90
23671;DHT22;12012;51.998;7.614;2023-12-20T03:48:13;5.80;99.90
23671;DHT22;12012;51.998;7.614;2023-12-20T03:50:39;5.70;99.90
23671;DHT22;12012;51.998;7.614;2023-12-20T03:53:04;5.70;99.90
23671;DHT22;12012;51.998;7.614;2023-12-20T03:55:30;5.70;99.90
23671;DHT22;12012;51.998;7.614;2023-12-20T03:57:55;5.80;99.90
23671;DHT22;12012;51.998;7.614;2023-12-20T04:00:21;5.70;99.90
23671;DHT22;12012;51.998;7.614;2023-12-20T04:02:47;5.70;99.90
23671;DHT22;12012;51.998;7.614;2023-12-20T04:05:12;5.80;99.90
23671;DHT22;12012;51.998;7.614;2023-12-20T04:07:38;5.80;99.90
23671;DHT22;12012;51.998;7.614;2023-12-20T04:10:04;5.80;99.90
23671;DHT22;12012;51.998;7.614;2023-12-20T04:12:32;5.80;99.90
23671;DHT22;12012;51.998;7.614;2023-12-20T04:14:57;5.80;99.90
23671;DHT22;12012;51.998;7.614;2023-12-20T04:17:23;5.80;99.90
23671;DHT22;12012;51.998;7.614;2023-12-20T04:19:49;5.80;99.90
23671;DHT22;12012;51.998;7.614;2023-12-20T04:22:15;5.80;99.90
23671;DHT22;12012;51.998;7.614;2023-12-20T04:24:41;5.80;99.90
23671;DHT22;12012;51.998;7.614;2023-12-20T04:27:09;5.80;99.90
23671;DHT22;12012;51.998;7.614;2023-12-20T04:29:35;5.80;99.90
23671;DHT22;12012;51.998;7.614;2023-12-20T04:32:00;5.80;99.90
23671;DHT22;12012;51.998;7.614;2023-12-20T04:34:29;5.80;99.90
23671;DHT22;12012;51.998;7.614;2023-12-20T04:36:55;5.90;99.90
23671;DHT22;12012;51.998;7.614;2023-12-20T04:39:23;5.90;99.90
23671;DHT22;12012;51.998;7.614;2023-12-20T04:41:48;5.90;99.90
23671;DHT22;12012;51.998;7.614;2023-12-20T04:44:15;5.90;99.90
23671;DHT22;12012;51.998;7.614;2023-12-20T04:46:41;6.00;99.90
23671;DHT22;12012;51.998;7.614;2023-12-20T04:49:07;6.00;99.90
23671;DHT22;12012;51.998;7.614;2023-12-20T04:51:34;6.00;99.90
23671;DHT22;12012;51.998;7.614;2023-12-20T04:54:00;6.00;99.90
23671;DHT22;12012;51.998;7.614;2023-12-20T04:56:25;6.00;99.90
23671;DHT22;12012;51.998;7.614;2023-12-20T04:58:51;6.00;99.90
23671;DHT22;12012;51.998;7.614;2023-12-20T05:01:17;6.00;99.90
23671;DHT22;12012;51.998;7.614;2023-12-20T05:03:42;6.00;99.90
23671;DHT22;12012;51.998;7.614;2023-12-20T05:06:09;6.00;99.90
23671;DHT22;12012;51.998;7.614;2023-12-20T05:08:35;6.00;99.90
23671;DHT22;12012;51.998;7.614;2023-12-20T05:11:01;6.00;99.90
23671;DHT22;12012;51.998;7.614;2023-12-20T05:13:27;6.00;99.90
23671;DHT22;12012;51.998;7.614;2023-12-20T05:15:52;6.00;99.90
23671;DHT22;12012;51.998;7.614;2023-12-20T05:18:18;6.00;99.90
23671;DHT22;12012;51.998;7.614;2023-12-20T05:20:44;6.00;99.90
23671;DHT22;12012;51.998;7.614;2023-12-20T05:23:09;6.10;99.90
23671;DHT22;12012;51.998;7.614;2023-12-20T05:25:36;6.10;99.90
23671;DHT22;12012;51.998;7.614;2023-12-20T05:28:02;6.00;99.90
23671;DHT22;12012;51.998;7.614;2023-12-20T05:30:28;6.00;99.90
23671;DHT22;12012;51.998;7.614;2023-12-20T05:32:53;6.00;99.90
23671;DHT22;12012;51.998;7.614;2023-12-20T05:35:19;6.00;99.90
23671;DHT22;12012;51.998;7.614;2023-12-20T05:37:45;6.00;99.90
23671;DHT22;12012;51.998;7.614;2023-12-20T05:40:11;6.00;99.90
23671;DHT22;12012;51.998;7.614;2023-12-20T05:42:37;6.00;99.90
23671;DHT22;12012;51.998;7.614;2023-12-20T05:45:03;6.00;99.90
23671;DHT22;12012;51.998;7.614;2023-12-20T05:47:29;5.90;99.90
23671;DHT22;12012;51.998;7.614;2023-12-20T05:49:55;6.00;99.90
23671;DHT22;12012;51.998;7.614;2023-12-20T05:52:20;6.00;99.90
23671;DHT22;12012;51.998;7.614;2023-12-20T05:54:46;6.00;99.90
23671;DHT22;12012;51.998;7.614;2023-12-20T05:57:11;6.00;99.90
23671;DHT22;12012;51.998;7.614;2023-12-20T05:59:37;6.00;99.90
23671;DHT22;12012;51.998;7.614;2023-12-20T06:02:03;6.00;99.90
23671;DHT22;12012;51.998;7.614;2023-12-20T06:04:30;6.10;99.90
23671;DHT22;12012;51.998;7.614;2023-12-20T06:06:55;6.10;99.90
23671;DHT22;12012;51.998;7.614;2023-12-20T06:09:21;6.10;99.90
23671;DHT22;12012;51.998;7.614;2023-12-20T06:11:46;6.10;99.90
23671;DHT22;12012;51.998;7.614;2023-12-20T06:14:12;6.10;99.90
23671;DHT22;12012;51.998;7.614;2023-12-20T06:16:38;6.10;99.90
23671;DHT22;12012;51.998;7.614;2023-12-20T06:19:03;6.20;99.90
23671;DHT22;12012;51.998;7.614;2023-12-20T06:21:29;6.10;99.90
23671;DHT22;12012;51.998;7.614;2023-12-20T06:23:54;6.10;99.90
23671;DHT22;12012;51.998;7.614;2023-12-20T06:26:20;6.20;99.90
23671;DHT22;12012;51.998;7.614;2023-12-20T06:28:46;6.20;99.90
23671;DHT22;12012;51.998;7.614;2023-12-20T06:31:11;6.20;99.90
23671;DHT22;12012;51.998;7.614;2023-12-20T06:33:38;6.20;99.90
23671;DHT22;12012;51.998;7.614;2023-12-20T06:36:06;6.20;99.90
23671;DHT22;12012;51.998;7.614;2023-12-20T06:38:32;6.20;99.90
23671;DHT22;12012;51.998;7.614;2023-12-20T06:40:57;6.20;99.90
23671;DHT22;12012;51.998;7.614;2023-12-20T06:43:24;6.20;99.90
23671;DHT22;12012;51.998;7.614;2023-12-20T06:45:49;6.20;99.90
23671;DHT22;12012;51.998;7.614;2023-12-20T06:48:16;6.20;99.90
23671;DHT22;12012;51.998;7.614;2023-12-20T06:50:42;6.30;99.90
23671;DHT22;12012;51.998;7.614;2023-12-20T06:53:10;6.30;99.90
23671;DHT22;12012;51.998;7.614;2023-12-20T06:55:36;6.30;99.90
23671;DHT22;12012;51.998;7.614;2023-12-20T06:58:03;6.30;99.90
23671;DHT22;12012;51.998;7.614;2023-12-20T07:00:30;6.30;99.90
23671;DHT22;12012;51.998;7.614;2023-12-20T07:02:56;6.30;99.90
23671;DHT22;12012;51.998;7.614;2023-12-20T07:05:22;6.30;99.90
23671;DHT22;12012;51.998;7.614;2023-12-20T07:07:47;6.30;99.90
23671;DHT22;12012;51.998;7.614;2023-12-20T07:10:13;6.30;99.90
23671;DHT22;12012;51.998;7.614;2023-12-20T07:12:39;6.30;99.90
23671;DHT22;12012;51.998;7.614;2023-12-20T07:15:08;6.30;99.90
23671;DHT22;12012;51.998;7.614;2023-12-20T07:17:34;6.40;99.90
23671;DHT22;12012;51.998;7.614;2023-12-20T07:20:00;6.40;99.90
23671;DHT22;12012;51.998;7.614;2023-12-20T07:22:30;6.40;99.90
23671;DHT22;12012;51.998;7.614;2023-12-20T07:24:59;6.50;99.90
23671;DHT22;12012;51.998;7.614;2023-12-20T07:27:26;6.50;99.90
23671;DHT22;12012;51.998;7.614;2023-12-20T07:29:52;6.40;99.90
23671;DHT22;12012;51.998;7.614;2023-12-20T07:32:17;6.40;99.90
23671;DHT22;12012;51.998;7.614;2023-12-20T07:34:43;6.40;99.90
23671;DHT22;12012;51.998;7.614;2023-12-20T07:37:09;6.40;99.90
23671;DHT22;12012;51.998;7.614;2023-12-20T07:39:37;6.40;99.90
23671;DHT22;12012;51.998;7.614;2023-12-20T07:42:03;6.40;99.90
23671;DHT22;12012;51.998;7.614;2023-12-20T07:44:29;6.50;99.90
23671;DHT22;12012;51.998;7.614;2023-12-20T07:46:54;6.40;99.90
23671;DHT22;12012;51.998;7.614;2023-12-20T07:49:26;6.40;99.90
23671;DHT22;12012;51.998;7.614;2023-12-20T07:51:52;6.40;99.90
23671;DHT22;12012;51.998;7.614;2023-12-20T07:54:17;6.50;99.90
23671;DHT22;12012;51.998;7.614;2023-12-20T07:56:43;6.50;99.90
23671;DHT22;12012;51.998;7.614;2023-12-20T07:59:09;6.50;99.90
23671;DHT22;12012;51.998;7.614;2023-12-20T08:01:34;6.50;99.90
23671;DHT22;12012;51.998;7.614;2023-12-20T08:04:00;6.50;99.90
23671;DHT22;12012;51.998;7.614;2023-12-20T08:06:25;6.50;99.90
23671;DHT22;12012;51.998;7.614;2023-12-20T08:08:51;6.50;99.90
23671;DHT22;12012;51.998;7.614;2023-12-20T08:11:17;6.50;99.90
23671;DHT22;12012;51.998;7.614;2023-12-20T08:13:43;6.50;99.90
23671;DHT22;12012;51.998;7.614;2023-12-20T08:16:08;6.60;99.90
23671;DHT22;12012;51.998;7.614;2023-12-20T08:18:34;6.60;99.90
23671;DHT22;12012;51.998;7.614;2023-12-20T08:21:00;6.60;99.90
23671;DHT22;12012;51.998;7.614;2023-12-20T08:23:26;6.60;99.90
23671;DHT22;12012;51.998;7.614;2023-12-20T08:25:52;6.60;99.90
23671;DHT22;12012;51.998;7.614;2023-12-20T08:28:18;6.60;99.90
23671;DHT22;12012;51.998;7.614;2023-12-20T08:30:43;6.60;99.90
23671;DHT22;12012;51.998;7.614;2023-12-20T08:33:09;6.60;99.90
23671;DHT22;12012;51.998;7.614;2023-12-20T08:35:38;6.70;99.90
23671;DHT22;12012;51.998;7.614;2023-12-20T08:38:04;6.70;99.90
23671;DHT22;12012;51.998;7.614;2023-12-20T08:40:30;6.70;99.90
23671;DHT22;12012;51.998;7.614;2023-12-20T08:42:56;6.70;99.90
23671;DHT22;12012;51.998;7.614;2023-12-20T08:45:21;6.70;99.90
23671;DHT22;12012;51.998;7.614;2023-12-20T08:47:47;6.80;99.90
23671;DHT22;12012;51.998;7.614;2023-12-20T08:50:12;6.80;99.90
23671;DHT22;12012;51.998;7.614;2023-12-20T08:52:38;6.80;99.90
23671;DHT22;12012;51.998;7.614;2023-12-20T08:55:04;6.80;99.90
23671;DHT22;12012;51.998;7.614;2023-12-20T08:57:30;6.90;99.90
23671;DHT22;12012;51.998;7.614;2023-12-20T08:59:57;6.90;99.90
23671;DHT22;12012;51.998;7.614;2023-12-20T09:02:23;6.90;99.90
23671;DHT22;12012;51.998;7.614;2023-12-20T09:04:48;6.90;99.90
23671;DHT22;12012;51.998;7.614;2023-12-20T09:07:24;7.00;99.90
23671;DHT22;12012;51.998;7.614;2023-12-20T09:09:50;7.00;99.90
23671;DHT22;12012;51.998;7.614;2023-12-20T09:12:20;7.00;99.90
23671;DHT22;12012;51.998;7.614;2023-12-20T09:14:46;7.00;99.90
23671;DHT22;12012;51.998;7.614;2023-12-20T09:17:12;7.00;99.90
23671;DHT22;12012;51.998;7.614;2023-12-20T09:19:38;7.00;99.90
23671;DHT22;12012;51.998;7.614;2023-12-20T09:22:04;7.10;99.90
23671;DHT22;12012;51.998;7.614;2023-12-20T09:24:30;7.10;99.90
23671;DHT22;12012;51.998;7.614;2023-12-20T09:26:56;7.10;99.90
23671;DHT22;12012;51.998;7.614;2023-12-20T09:29:21;7.10;99.90
23671;DHT22;12012;51.998;7.614;2023-12-20T09:31:47;7.10;99.90
23671;DHT22;12012;51.998;7.614;2023-12-20T09:34:15;7.20;99.90
23671;DHT22;12012;51.998;7.614;2023-12-20T09:36:41;7.20;99.90
23671;DHT22;12012;51.998;7.614;2023-12-20T09:39:13;7.20;99.90
23671;DHT22;12012;51.998;7.614;2023-12-20T09:41:43;7.30;99.90
23671;DHT22;12012;51.998;7.614;2023-12-20T09:44:14;7.40;99.90
23671;DHT22;12012;51.998;7.614;2023-12-20T09:46:44;7.60;98.10
23671;DHT22;12012;51.998;7.614;2023-12-20T09:49:10;7.60;98.20
23671;DHT22;12012;51.998;7.614;2023-12-20T09:51:36;7.80;97.80
23671;DHT22;12012;51.998;7.614;2023-12-20T09:54:03;7.80;94.50
23671;DHT22;12012;51.998;7.614;2023-12-20T09:56:30;7.80;94.30
23671;DHT22;12012;51.998;7.614;2023-12-20T09:58:56;7.80;94.40
23671;DHT22;12012;51.998;7.614;2023-12-20T10:01:21;7.80;93.70
23671;DHT22;12012;51.998;7.614;2023-12-20T10:03:47;7.80;94.00
23671;DHT22;12012;51.998;7.614;2023-12-20T10:06:13;7.70;94.10
23671;DHT22;12012;51.998;7.614;2023-12-20T10:08:39;7.60;95.90
23671;DHT22;12012;51.998;7.614;2023-12-20T10:11:05;7.50;98.00
23671;DHT22;12012;51.998;7.614;2023-12-20T10:13:31;7.40;99.90
23671;DHT22;12012;51.998;7.614;2023-12-20T10:15:56;7.40;99.90
23671;DHT22;12012;51.998;7.614;2023-12-20T10:18:22;7.30;99.90
23671;DHT22;12012;51.998;7.614;2023-12-20T10:20:48;7.30;99.90
23671;DHT22;12012;51.998;7.614;2023-12-20T10:23:15;7.30;99.90
23671;DHT22;12012;51.998;7.614;2023-12-20T10:25:40;7.30;99.90
23671;DHT22;12012;51.998;7.614;2023-12-20T10:28:15;7.30;99.90
23671;DHT22;12012;51.998;7.614;2023-12-20T10:30:44;7.30;99.90
23671;DHT22;12012;51.998;7.614;2023-12-20T10:33:10;7.30;99.90
23671;DHT22;12012;51.998;7.614;2023-12-20T10:35:37;7.20;99.90
23671;DHT22;12012;51.998;7.614;2023-12-20T10:38:06;7.20;99.90
23671;DHT22;12012;51.998;7.614;2023-12-20T10:40:35;7.30;99.90
23671;DHT22;12012;51.998;7.614;2023-12-20T10:43:04;7.30;99.90
23671;DHT22;12012;51.998;7.614;2023-12-20T10:45:30;7.30;99.90
23671;DHT22;12012;51.998;7.614;2023-12-20T10:47:56;7.40;99.90
23671;DHT22;12012;51.998;7.614;2023-12-20T10:50:24;7.40;99.90
23671;DHT22;12012;51.998;7.614;2023-12-20T10:52:52;7.40;99.90
23671;DHT22;12012;51.998;7.614;2023-12-20T10:55:22;7.40;99.90
23671;DHT22;12012;51.998;7.614;2023-12-20T10:57:51;7.30;99.90
23671;DHT22;12012;51.998;7.614;2023-12-20T11:00:18;7.30;99.90
23671;DHT22;12012;51.998;7.614;2023-12-20T11:02:46;7.30;99.90
23671;DHT22;12012;51.998;7.614;2023-12-20T11:08:24;7.20;99.90
23671;DHT22;12012;51.998;7.614;2023-12-20T11:10:59;7.40;99.90
23671;DHT22;12012;51.998;7.614;2023-12-20T11:13:37;7.60;99.90
23671;DHT22;12012;51.998;7.614;2023-12-20T11:16:06;7.50;99.90
23671;DHT22;12012;51.998;7.614;2023-12-20T11:18:33;7.50;99.90
23671;DHT22;12012;51.998;7.614;2023-12-20T11:21:04;7.50;99.90
23671;DHT22;12012;51.998;7.614;2023-12-20T11:23:31;7.40;99.90
23671;DHT22;12012;51.998;7.614;2023-12-20T11:25:59;7.70;99.90
23671;DHT22;12012;51.998;7.614;2023-12-20T11:28:25;8.00;99.90
23671;DHT22;12012;51.998;7.614;2023-12-20T11:30:56;8.00;97.10
23671;DHT22;12012;51.998;7.614;2023-12-20T11:33:27;8.00;96.40
23671;DHT22;12012;51.998;7.614;2023-12-20T11:35:56;8.00;98.10
23671;DHT22;12012;51.998;7.614;2023-12-20T11:38:22;8.10;97.20
23671;DHT22;12012;51.998;7.614;2023-12-20T11:40:49;8.20;94.90
23671;DHT22;12012;51.998;7.614;2023-12-20T11:43:37;8.60;84.60
23671;DHT22;12012;51.998;7.614;2023-12-20T11:46:07;8.40;80.10
23671;DHT22;12012;51.998;7.614;2023-12-20T11:48:38;8.40;86.80
23671;DHT22;12012;51.998;7.614;2023-12-20T11:51:13;8.30;84.30
23671;DHT22;12012;51.998;7.614;2023-12-20T11:53:39;9.00;65.90
23671;DHT22;12012;51.998;7.614;2023-12-20T11:56:06;9.30;37.80
23671;DHT22;12012;51.998;7.614;2023-12-20T11:58:33;9.50;28.00
23671;DHT22;12012;51.998;7.614;2023-12-20T12:00:58;9.50;28.00
23671;DHT22;12012;51.998;7.614;2023-12-20T12:03:24;9.20;31.20
23671;DHT22;12012;51.998;7.614;2023-12-20T12:05:50;8.90;45.30
23671;DHT22;12012;51.998;7.614;2023-12-20T12:08:17;8.70;59.00
23671;DHT22;12012;51.998;7.614;2023-12-20T12:10:43;8.60;61.20
23671;DHT22;12012;51.998;7.614;2023-12-20T12:13:09;8.50;73.10
23671;DHT22;12012;51.998;7.614;2023-12-20T12:15:36;8.40;79.00
23671;DHT22;12012;51.998;7.614;2023-12-20T12:18:02;8.40;77.10
23671;DHT22;12012;51.998;7.614;2023-12-20T12:20:28;8.40;78.30
23671;DHT22;12012;51.998;7.614;2023-12-20T12:22:58;8.50;66.90
23671;DHT22;12012;51.998;7.614;2023-12-20T12:25:24;8.40;63.40
23671;DHT22;12012;51.998;7.614;2023-12-20T12:27:51;8.40;65.50
23671;DHT22;12012;51.998;7.614;2023-12-20T12:30:16;8.40;64.90
23671;DHT22;12012;51.998;7.614;2023-12-20T12:32:44;8.50;64.30
23671;DHT22;12012;51.998;7.614;2023-12-20T12:35:10;8.60;55.00
23671;DHT22;12012;51.998;7.614;2023-12-20T12:37:38;8.80;52.60
23671;DHT22;12012;51.998;7.614;2023-12-20T12:40:12;9.30;40.00
23671;DHT22;12012;51.998;7.614;2023-12-20T12:42:39;9.60;3.40
23671;DHT22;12012;51.998;7.614;2023-12-20T12:45:05;10.00;1.00
23671;DHT22;12012;51.998;7.614;2023-12-20T12:47:31;9.70;1.00
23671;DHT22;12012;51.998;7.614;2023-12-20T12:49:57;9.40;1.00
23671;DHT22;12012;51.998;7.614;2023-12-20T12:52:22;9.20;1.00
23671;DHT22;12012;51.998;7.614;2023-12-20T12:54:48;9.00;12.50
23671;DHT22;12012;51.998;7.614;2023-12-20T12:57:14;8.90;21.20
23671;DHT22;12012;51.998;7.614;2023-12-20T12:59:42;8.80;28.10
23671;DHT22;12012;51.998;7.614;2023-12-20T13:02:08;8.70;36.30
23671;DHT22;12012;51.998;7.614;2023-12-20T13:04:33;8.60;44.70
23671;DHT22;12012;51.998;7.614;2023-12-20T13:06:59;8.50;48.60
23671;DHT22;12012;51.998;7.614;2023-12-20T13:09:25;8.40;58.50
23671;DHT22;12012;51.998;7.614;2023-12-20T13:11:50;8.20;71.30
23671;DHT22;12012;51.998;7.614;2023-12-20T13:14:16;8.10;80.00
23671;DHT22;12012;51.998;7.614;2023-12-20T13:16:42;8.00;87.20
23671;DHT22;12012;51.998;7.614;2023-12-20T13:19:08;7.90;91.30
23671;DHT22;12012;51.998;7.614;2023-12-20T13:21:35;7.80;94.00
23671;DHT22;12012;51.998;7.614;2023-12-20T13:24:01;7.70;95.60
23671;DHT22;12012;51.998;7.614;2023-12-20T13:26:26;7.60;97.30
23671;DHT22;12012;51.998;7.614;2023-12-20T13:28:52;7.60;98.00
23671;DHT22;12012;51.998;7.614;2023-12-20T13:31:19;7.50;98.80
23671;DHT22;12012;51.998;7.614;2023-12-20T13:33:45;7.50;99.60
23671;DHT22;12012;51.998;7.614;2023-12-20T13:36:10;7.40;99.90
23671;DHT22;12012;51.998;7.614;2023-12-20T13:38:36;7.40;99.70
23671;DHT22;12012;51.998;7.614;2023-12-20T13:41:01;7.20;96.60
23671;DHT22;12012;51.998;7.614;2023-12-20T13:43:27;7.10;98.50
23671;DHT22;12012;51.998;7.614;2023-12-20T13:45:53;6.90;99.90
23671;DHT22;12012;51.998;7.614;2023-12-20T13:48:18;6.80;99.90
23671;DHT22;12012;51.998;7.614;2023-12-20T13:50:44;6.70;99.90
23671;DHT22;12012;51.998;7.614;2023-12-20T13:53:09;6.60;99.90
23671;DHT22;12012;51.998;7.614;2023-12-20T13:55:35;6.50;99.90
23671;DHT22;12012;51.998;7.614;2023-12-20T13:58:00;6.50;99.90
23671;DHT22;12012;51.998;7.614;2023-12-20T14:00:26;6.50;99.90
23671;DHT22;12012;51.998;7.614;2023-12-20T14:02:52;6.50;99.90
23671;DHT22;12012;51.998;7.614;2023-12-20T14:05:17;6.50;99.90
23671;DHT22;12012;51.998;7.614;2023-12-20T14:07:45;6.60;99.90
23671;DHT22;12012;51.998;7.614;2023-12-20T14:10:12;6.70;99.90
23671;DHT22;12012;51.998;7.614;2023-12-20T14:12:39;6.80;99.90
23671;DHT22;12012;51.998;7.614;2023-12-20T14:15:05;6.90;99.90
23671;DHT22;12012;51.998;7.614;2023-12-20T14:17:37;7.00;99.90
23671;DHT22;12012;51.998;7.614;2023-12-20T14:20:04;7.00;99.90
23671;DHT22;12012;51.998;7.614;2023-12-20T14:22:30;7.10;99.90
23671;DHT22;12012;51.998;7.614;2023-12-20T14:24:55;7.20;99.90
23671;DHT22;12012;51.998;7.614;2023-12-20T14:27:22;7.30;99.90
23671;DHT22;12012;51.998;7.614;2023-12-20T14:29:49;7.40;99.90
23671;DHT22;12012;51.998;7.614;2023-12-20T14:32:15;7.40;99.90
23671;DHT22;12012;51.998;7.614;2023-12-20T14:34:41;7.50;99.90
23671;DHT22;12012;51.998;7.614;2023-12-20T14:37:07;7.50;99.90
23671;DHT22;12012;51.998;7.614;2023-12-20T14:39:33;7.50;99.90
23671;DHT22;12012;51.998;7.614;2023-12-20T14:41:58;7.60;99.90
23671;DHT22;12012;51.998;7.614;2023-12-20T14:44:24;7.60;99.90
23671;DHT22;12012;51.998;7.614;2023-12-20T14:46:50;7.60;99.90
23671;DHT22;12012;51.998;7.614;2023-12-20T14:49:16;7.60;99.90
23671;DHT22;12012;51.998;7.614;2023-12-20T14:51:44;7.60;99.90
23671;DHT22;12012;51.998;7.614;2023-12-20T14:54:10;7.60;99.90
23671;DHT22;12012;51.998;7.614;2023-12-20T14:56:35;7.60;99.90
23671;DHT22;12012;51.998;7.614;2023-12-20T14:59:01;7.60;99.90
23671;DHT22;12012;51.998;7.614;2023-12-20T15:01:26;7.60;99.90
23671;DHT22;12012;51.998;7.614;2023-12-20T15:03:53;7.50;99.90
23671;DHT22;12012;51.998;7.614;2023-12-20T15:06:21;7.50;99.90
23671;DHT22;12012;51.998;7.614;2023-12-20T15:08:47;7.50;99.90
23671;DHT22;12012;51.998;7.614;2023-12-20T15:11:12;7.50;99.90
23671;DHT22;12012;51.998;7.614;2023-12-20T15:13:39;7.50;99.90
23671;DHT22;12012;51.998;7.614;2023-12-20T15:16:05;7.40;99.90
23671;DHT22;12012;51.998;7.614;2023-12-20T15:18:31;7.50;99.90
23671;DHT22;12012;51.998;7.614;2023-12-20T15:20:57;7.40;99.90
23671;DHT22;12012;51.998;7.614;2023-12-20T15:23:23;7.40;99.90
23671;DHT22;12012;51.998;7.614;2023-12-20T15:25:51;7.40;99.90
23671;DHT22;12012;51.998;7.614;2023-12-20T15:28:17;7.40;99.90
23671;DHT22;12012;51.998;7.614;2023-12-20T15:30:43;7.50;99.90
23671;DHT22;12012;51.998;7.614;2023-12-20T15:33:08;7.50;99.90
23671;DHT22;12012;51.998;7.614;2023-12-20T15:35:34;7.50;99.90
23671;DHT22;12012;51.998;7.614;2023-12-20T15:37:59;7.50;99.90
23671;DHT22;12012;51.998;7.614;2023-12-20T15:40:25;7.50;99.90
23671;DHT22;12012;51.998;7.614;2023-12-20T15:42:50;7.50;99.90
23671;DHT22;12012;51.998;7.614;2023-12-20T15:45:16;7.50;99.90